ADDS METAR Data INFO
IDs: Format: Raw Decoded Include TAF

Data at: 0840 UTC 21 Oct 2017

KW13 210835Z AUTO 00000KT 10SM CLR 07/07 A3030 RMK AO1 T00720071
KW13 210815Z AUTO 00000KT 10SM CLR 08/07 A3030 RMK AO1 T00750074
KW13 210755Z AUTO 00000KT 10SM CLR 08/08 A3030 RMK AO1 T00810081
KW13 210735Z AUTO 00000KT 10SM CLR 08/08 A3030 RMK AO1 T00800080
KW13 210715Z AUTO 00000KT 10SM CLR 08/08 A3030 RMK AO1 T00830082
KW13 210655Z AUTO 00000KT 10SM CLR 09/08 A3030 RMK AO1 T00860084
KW13 210635Z AUTO 00000KT 10SM CLR 08/08 A3030 RMK AO1 T00840083
KW13 210615Z AUTO 00000KT 10SM CLR 09/08 A3030 RMK AO1 T00860083
KW13 210555Z AUTO 00000KT 10SM CLR 09/09 A3030 RMK AO1 T00890087 10153 20086
KW13 210535Z AUTO 00000KT 10SM CLR 09/09 A3029 RMK AO1 T00880086
KW13 210515Z AUTO 00000KT 10SM CLR 09/09 A3029 RMK AO1 T00910087
KW13 210455Z AUTO 00000KT 10SM CLR 09/09 A3031 RMK AO1 T00910085 402360065
KW13 210435Z AUTO 00000KT 10SM CLR 09/09 A3031 RMK AO1 T00930085
KW13 210415Z AUTO 00000KT 10SM CLR 10/09 A3031 RMK AO1 T01010091
KW13 210355Z AUTO 00000KT 10SM CLR 10/09 A3030 RMK AO1 T01020091
KW13 210335Z AUTO 00000KT 10SM CLR 11/09 A3030 RMK AO1 T01110093
KW13 210315Z AUTO 30003KT 10SM CLR 11/10 A3029 RMK AO1 T01110098
KW13 210255Z AUTO 00000KT 10SM CLR 12/10 A3028 RMK AO1 T01160095
KW13 210235Z AUTO 00000KT 10SM CLR 12/10 A3027 RMK AO1 T01230098
KW13 210215Z AUTO 00000KT 10SM CLR 13/10 A3027 RMK AO1 T01260100
KW13 210155Z AUTO 22004KT 10SM CLR 13/10 A3027 RMK AO1 T01250100
KW13 210135Z AUTO 21004KT 10SM CLR 13/10 A3026 RMK AO1 T01340101
KW13 210115Z AUTO 21005KT 10SM CLR 14/10 A3026 RMK AO1 T01390101
KW13 210055Z AUTO 21004KT 10SM CLR 14/10 A3025 RMK AO1 T01360102
KW13 210035Z AUTO 22003KT 10SM CLR 14/10 A3026 RMK AO1 T01430103
KW13 210015Z AUTO 21004KT 10SM CLR 15/10 A3025 RMK AO1 T01500102
KW13 202355Z AUTO 00000KT 10SM CLR 16/10 A3025 RMK AO1 T01560100 10236 20145
KW13 202335Z AUTO 00000KT 10SM CLR 16/10 A3025 RMK AO1 T01630098
KW13 202315Z AUTO 00000KT 10SM CLR 16/10 A3024 RMK AO1 T01600101
KW13 202255Z AUTO 00000KT 10SM CLR 18/10 A3023 RMK AO1 T01830097
KW13 202235Z AUTO 30004KT 10SM CLR 20/10 A3022 RMK AO1 T01960096
KW13 202215Z AUTO 01003KT 10SM CLR 21/09 A3022 RMK AO1 T02100092
KW13 202155Z AUTO 04004KT 10SM CLR 22/09 A3022 RMK AO1 T02180093
KW13 202135Z AUTO 01003KT 10SM CLR 22/09 A3022 RMK AO1 T02240090
KW13 202115Z AUTO 00000KT 10SM CLR 23/08 A3022 RMK AO1 T02300084
KW13 202055Z AUTO 36003KT 10SM CLR 23/09 A3022 RMK AO1 T02310086
KW13 202035Z AUTO 00000KT 10SM CLR 23/08 A3022 RMK AO1 T02320084
KW13 202015Z AUTO 31004KT 10SM CLR 23/08 A3022 RMK AO1 T02340083
KW13 201955Z AUTO 00000KT 10SM CLR 23/08 A3022 RMK AO1 T02330082
KW13 201935Z AUTO 33003KT 10SM CLR 23/09 A3023 RMK AO1 T02330085
KW13 201915Z AUTO 00000KT 10SM CLR 23/08 A3023 RMK AO1 T02330081
KW13 201855Z AUTO 00000KT 10SM CLR 23/08 A3023 RMK AO1 T02310082
KW13 201835Z AUTO 00000KT 10SM CLR 23/08 A3024 RMK AO1 T02290082
KW13 201815Z AUTO 00000KT 10SM CLR 23/08 A3024 RMK AO1 T02290082
KW13 201755Z AUTO 34005KT 10SM CLR 22/09 A3025 RMK AO1 T02240087 10228 20072
KW13 201735Z AUTO 00000KT 10SM CLR 22/09 A3026 RMK AO1 T02220090
KW13 201715Z AUTO 33005KT 10SM CLR 22/10 A3027 RMK AO1 T02220098
KW13 201655Z AUTO 00000KT 10SM CLR 21/10 A3028 RMK AO1 T02140099
KW13 201635Z AUTO 00000KT 10SM CLR 21/10 A3029 RMK AO1 T02090102
KW13 201615Z AUTO 00000KT 10SM CLR 21/10 A3030 RMK AO1 T02060102
KW13 201555Z AUTO 00000KT 10SM CLR 20/10 A3031 RMK AO1 T02000101
KW13 201535Z AUTO 00000KT 10SM CLR 20/10 A3031 RMK AO1 T01960101
KW13 201515Z AUTO 00000KT 10SM CLR 19/10 A3031 RMK AO1 T01850096
KW13 201455Z AUTO 00000KT 10SM CLR 18/09 A3032 RMK AO1 T01800090
KW13 201435Z AUTO 12003KT 10SM CLR 17/09 A3032 RMK AO1 T01680086
KW13 201415Z AUTO 10003KT 10SM CLR 16/08 A3032 RMK AO1 T01610083
KW13 201355Z AUTO 00000KT 10SM CLR 15/09 A3032 RMK AO1 T01500087
KW13 201335Z AUTO 00000KT 10SM CLR 13/08 A3032 RMK AO1 T01330083
KW13 201315Z AUTO 00000KT 10SM CLR 12/08 A3031 RMK AO1 T01210081
KW13 201255Z AUTO 00000KT 10SM CLR 10/07 A3031 RMK AO1 T01030070
KW13 201235Z AUTO 00000KT 10SM CLR 09/06 A3030 RMK AO1 T00850063
KW13 201215Z AUTO 00000KT 10SM CLR 08/06 A3029 RMK AO1 T00750060
KW13 201155Z AUTO 00000KT 10SM CLR 07/06 A3028 RMK AO1 T00710057 10150 20065
KW13 201135Z AUTO 00000KT 10SM CLR 07/06 A3028 RMK AO1 T00660056
KW13 201115Z AUTO 00000KT 10SM CLR 07/06 A3027 RMK AO1 T00710055
KW13 201055Z AUTO 00000KT 10SM CLR 08/05 A3026 RMK AO1 T00810053
KW13 201035Z AUTO 00000KT 10SM CLR 08/05 A3026 RMK AO1 T00810053
KW13 201015Z AUTO 00000KT 10SM CLR 08/05 A3026 RMK AO1 T00790054
KW13 200955Z AUTO 00000KT 10SM CLR 07/05 A3025 RMK AO1 T00710054
KW13 200935Z AUTO 00000KT 10SM CLR 07/05 A3025 RMK AO1 T00670053
KW13 200915Z AUTO 00000KT 10SM CLR 07/05 A3024 RMK AO1 T00720054
KW13 200855Z AUTO 00000KT 10SM CLR 07/05 A3024 RMK AO1 T00690054
KW13 200835Z AUTO 00000KT 10SM CLR 08/06 A3024 RMK AO1 T00790055
KW13 200815Z AUTO 00000KT 10SM CLR 08/06 A3024 RMK AO1 T00760055
KW13 200755Z AUTO 27005KT 10SM CLR 09/06 A3023 RMK AO1 T00890056
KW13 200735Z AUTO 24004KT 10SM CLR 14/05 A3023 RMK AO1 T01430048
KW13 200715Z AUTO 27005KT 10SM CLR 10/06 A3023 RMK AO1 T00980057
KW13 200655Z AUTO 00000KT 10SM CLR 09/06 A3023 RMK AO1 T00880058
KW13 200635Z AUTO 28005KT 10SM CLR 10/06 A3023 RMK AO1 T01000057
KW13 200615Z AUTO 00000KT 10SM CLR 13/05 A3023 RMK AO1 T01310051
KW13 200555Z AUTO 27005KT 10SM CLR 15/05 A3023 RMK AO1 T01510045 10175 20119
KW13 200535Z AUTO 28006KT 10SM CLR 16/04 A3023 RMK AO1 T01550042
KW13 200515Z AUTO 25006KT 10SM CLR 15/05 A3023 RMK AO1 T01500045
KW13 200455Z AUTO 26005KT 10SM CLR 16/05 A3022 RMK AO1 T01550045 402290018
KW13 200435Z AUTO 25005KT 10SM CLR 14/05 A3022 RMK AO1 T01360052
KW13 200415Z AUTO 00000KT 10SM CLR 15/05 A3023 RMK AO1 T01510051
KW13 200355Z AUTO 23004KT 10SM CLR 13/06 A3023 RMK AO1 T01320057
KW13 200335Z AUTO 25007KT 10SM CLR 16/06 A3022 RMK AO1 T01560058
KW13 200315Z AUTO 26005KT 10SM CLR 16/05 A3021 RMK AO1 T01570051
KW13 200255Z AUTO 26005KT 10SM CLR 17/05 A3021 RMK AO1 T01650050
KW13 200235Z AUTO 26008KT 10SM CLR 17/05 A3021 RMK AO1 T01660052
KW13 200215Z AUTO 26007KT 10SM CLR 17/05 A3021 RMK AO1 T01730050
KW13 200155Z AUTO 25008KT 10SM CLR 17/05 A3021 RMK AO1 T01720050
KW13 200135Z AUTO 25005KT 10SM CLR 13/06 A3021 RMK AO1 T01300060
KW13 200115Z AUTO 21004KT 10SM CLR 13/06 A3020 RMK AO1 T01300057
KW13 200055Z AUTO 23004KT 10SM CLR 15/05 A3020 RMK AO1 T01460053
KW13 200035Z AUTO 23004KT 10SM CLR 15/06 A3020 RMK AO1 T01480055
KW13 200015Z AUTO 22004KT 10SM CLR 14/06 A3020 RMK AO1 T01430060
KW13 192355Z AUTO 21005KT 10SM CLR 15/06 A3019 RMK AO1 T01540058 10229 20154
KW13 192335Z AUTO 21005KT 10SM CLR 16/06 A3019 RMK AO1 T01550061
KW13 192315Z AUTO 21004KT 10SM CLR 16/06 A3019 RMK AO1 T01630060
KW13 192255Z AUTO 00000KT 10SM CLR 18/06 A3019 RMK AO1 T01770058
KW13 192235Z AUTO 22003KT 10SM CLR 19/06 A3019 RMK AO1 T01860055
KW13 192215Z AUTO 23004KT 10SM CLR 20/05 A3018 RMK AO1 T01970053
KW13 192155Z AUTO 23004KT 10SM CLR 21/05 A3018 RMK AO1 T02070052
KW13 192135Z AUTO 23006KT 10SM CLR 21/05 A3018 RMK AO1 T02120054
KW13 192115Z AUTO 22004G14KT 10SM CLR 22/05 A3019 RMK AO1 T02180051
KW13 192055Z AUTO 21004KT 10SM CLR 22/05 A3019 RMK AO1 T02200046